createdAt,value
2022-08-18T00:00:39.690Z,100475.06
2022-08-18T00:03:57.461Z,100477.50
2022-08-18T00:06:35.084Z,100480.16
2022-08-18T00:09:20.364Z,100475.91
2022-08-18T00:12:12.851Z,100494.44
2022-08-18T00:14:58.617Z,100490.19
2022-08-18T00:17:43.822Z,100484.38
2022-08-18T00:20:29.059Z,100487.00
2022-08-18T00:23:14.723Z,100498.28
2022-08-18T00:25:59.967Z,100505.44
2022-08-18T00:28:45.346Z,100513.06
2022-08-18T00:31:30.362Z,100520.56
2022-08-18T00:34:15.888Z,100522.41
2022-08-18T00:37:01.031Z,100513.28
2022-08-18T00:39:47.696Z,100519.22
2022-08-18T00:42:33.338Z,100510.31
2022-08-18T00:45:34.977Z,100503.19
2022-08-18T00:48:23.858Z,100496.78
2022-08-18T00:51:15.246Z,100478.84
2022-08-18T00:54:11.076Z,100480.56
2022-08-18T00:57:01.870Z,100481.22
2022-08-18T01:00:05.234Z,100494.25
2022-08-18T01:02:58.881Z,100488.31
2022-08-18T01:05:50.217Z,100477.03
2022-08-18T01:08:35.149Z,100480.63
2022-08-18T01:11:20.367Z,100487.69
2022-08-18T01:14:08.786Z,100489.53
2022-08-18T01:16:57.513Z,100488.69
2022-08-18T01:19:43.167Z,100485.94
2022-08-18T01:22:45.697Z,100482.38
2022-08-18T01:25:31.541Z,100475.44
2022-08-18T01:28:17.703Z,100476.44
2022-08-18T01:31:04.090Z,100479.94
2022-08-18T01:33:49.074Z,100475.00
2022-08-18T01:36:36.932Z,100462.81
2022-08-18T01:41:24.885Z,100476.78
2022-08-18T01:42:27.351Z,100480.34
2022-08-18T01:45:15.411Z,100480.34
2022-08-18T01:48:00.980Z,100483.03
2022-08-18T01:50:46.327Z,100485.72
2022-08-18T01:53:31.397Z,100486.56
2022-08-18T01:56:16.610Z,100491.81
2022-08-18T01:59:01.427Z,100497.72
2022-08-18T02:01:53.085Z,100509.38
2022-08-18T02:04:38.952Z,100510.59
2022-08-18T02:07:23.717Z,100518.28
2022-08-18T02:10:19.575Z,100513.34
2022-08-18T02:13:05.327Z,100507.88
2022-08-18T02:15:51.030Z,100513.91
2022-08-18T02:18:48.422Z,100512.91
2022-08-18T02:21:34.050Z,100512.78
2022-08-18T02:24:19.559Z,100517.16
2022-08-18T02:27:05.844Z,100510.34
2022-08-18T02:29:50.825Z,100518.44
2022-08-18T02:32:36.056Z,100510.59
2022-08-18T02:35:21.645Z,100504.69
2022-08-18T02:38:07.339Z,100475.06
2022-08-18T02:41:00.327Z,100472.41
2022-08-18T02:43:45.391Z,100488.06
2022-08-18T02:46:31.257Z,100479.34
2022-08-18T02:49:16.405Z,100479.28
2022-08-18T02:52:01.381Z,100477.63
2022-08-18T02:54:46.142Z,100475.00
2022-08-18T02:57:31.287Z,100477.63
2022-08-18T03:00:18.968Z,100463.81
2022-08-18T03:03:04.433Z,100481.31
2022-08-18T03:05:49.363Z,100481.44
2022-08-18T03:08:34.227Z,100480.66
2022-08-18T03:11:24.611Z,100481.63
2022-08-18T03:14:11.255Z,100487.66
2022-08-18T03:16:57.228Z,100485.09
2022-08-18T03:19:42.463Z,100494.59
2022-08-18T03:22:31.072Z,100489.53
2022-08-18T03:25:17.301Z,100483.56
2022-08-18T03:28:03.896Z,100484.41
2022-08-18T03:30:49.161Z,100488.84
2022-08-18T03:33:34.554Z,100479.31
2022-08-18T03:36:22.329Z,100497.84
2022-08-18T03:39:10.750Z,100485.81
2022-08-18T03:41:59.919Z,100489.31
2022-08-18T03:44:45.943Z,100483.25
2022-08-18T03:47:31.317Z,100484.09
2022-08-18T03:50:16.109Z,100492.84
2022-08-18T03:53:01.079Z,100498.09
2022-08-18T03:55:45.925Z,100499.84
2022-08-18T03:58:30.885Z,100512.03
2022-08-18T04:01:26.537Z,100522.44
2022-08-18T04:04:15.595Z,100523.25
2022-08-18T04:07:05.809Z,100523.19
2022-08-18T04:09:50.525Z,100529.28
2022-08-18T04:12:35.320Z,100530.97
2022-08-18T04:15:20.251Z,100528.25
2022-08-18T04:18:05.379Z,100531.66
2022-08-18T04:20:59.132Z,100534.22
2022-08-18T04:23:52.748Z,100549.81
2022-08-18T04:26:44.197Z,100544.53
2022-08-18T04:29:29.489Z,100546.13
2022-08-18T04:32:14.268Z,100540.72
2022-08-18T04:34:59.134Z,100539.84
2022-08-18T04:37:48.075Z,100558.97
2022-08-18T04:40:32.903Z,100545.66
2022-08-18T04:43:17.962Z,100546.41
2022-08-18T04:46:03.372Z,100545.41
2022-08-18T04:48:48.597Z,100546.13
2022-08-18T04:52:34.401Z,100543.44
2022-08-18T04:54:40.363Z,100546.94
2022-08-18T04:57:25.448Z,100535.59
2022-08-18T05:00:10.956Z,100542.72
2022-08-18T05:02:57.169Z,100539.19
2022-08-18T05:05:42.366Z,100552.22
2022-08-18T05:08:27.295Z,100549.69
2022-08-18T05:11:12.274Z,100546.34
2022-08-18T05:13:57.698Z,100557.59
2022-08-18T05:16:48.894Z,100554.28
2022-08-18T05:19:34.710Z,100575.38
2022-08-18T05:22:22.337Z,100564.34
2022-08-18T05:25:13.926Z,100557.34
2022-08-18T05:27:59.065Z,100562.53
2022-08-18T05:30:43.939Z,100550.94
2022-08-18T05:33:28.832Z,100553.50
2022-08-18T05:36:42.037Z,100554.34
2022-08-18T05:39:51.057Z,100561.13
2022-08-18T05:42:38.857Z,100556.56
2022-08-18T05:45:24.534Z,100558.25
2022-08-18T05:48:09.401Z,100553.00
2022-08-18T05:50:56.071Z,100566.13
2022-08-18T05:53:41.811Z,100564.44
2022-08-18T05:56:34.379Z,100552.09
2022-08-18T05:59:24.956Z,100564.34
2022-08-18T06:02:21.851Z,100565.41
2022-08-18T06:05:10.712Z,100563.81
2022-08-18T06:08:12.120Z,100566.56
2022-08-18T06:10:57.272Z,100565.75
2022-08-18T06:13:43.352Z,100568.16
2022-08-18T06:16:37.824Z,100561.34
2022-08-18T06:19:32.822Z,100568.25
2022-08-18T06:22:25.077Z,100571.38
2022-08-18T06:25:25.424Z,100577.22
2022-08-18T06:28:15.781Z,100574.38
2022-08-18T06:31:15.869Z,100582.56
2022-08-18T06:34:09.841Z,100583.47
2022-08-18T06:37:09.011Z,100587.81
2022-08-18T06:39:53.961Z,100582.38
2022-08-18T06:42:40.614Z,100579.06
2022-08-18T06:45:33.905Z,100592.75
2022-08-18T06:48:54.174Z,100591.13
2022-08-18T06:51:40.911Z,100597.25
2022-08-18T06:54:28.784Z,100600.31
2022-08-18T06:57:33.979Z,100601.97
2022-08-18T07:00:19.005Z,100605.59
2022-08-18T07:03:03.792Z,100606.47
2022-08-18T07:06:04.402Z,100606.34
2022-08-18T07:08:54.494Z,100607.00
2022-08-18T07:11:39.245Z,100605.00
2022-08-18T07:14:24.518Z,100605.22
2022-08-18T07:17:19.637Z,100613.09
2022-08-18T07:20:06.978Z,100614.66
2022-08-18T07:23:00.138Z,100613.63
2022-08-18T07:25:48.342Z,100613.66
2022-08-18T07:28:43.227Z,100609.31
2022-08-18T07:31:34.235Z,100620.34
2022-08-18T07:34:26.295Z,100615.84
2022-08-18T07:37:28.431Z,100611.94
2022-08-18T07:40:19.867Z,100616.78
2022-08-18T07:43:16.574Z,100620.03
2022-08-18T07:46:16.078Z,100625.03
2022-08-18T07:49:05.403Z,100625.72
2022-08-18T07:52:00.256Z,100630.22
2022-08-18T07:55:30.798Z,100629.81
2022-08-18T07:58:34.652Z,100630.19
2022-08-18T08:01:38.645Z,100628.59
2022-08-18T08:04:46.339Z,100625.91
2022-08-18T08:07:56.434Z,100633.50
2022-08-18T08:10:56.334Z,100635.50
2022-08-18T08:13:56.231Z,100625.72
2022-08-18T08:17:03.013Z,100614.84
2022-08-18T08:20:18.518Z,100622.78
2022-08-18T08:23:18.585Z,100623.22
2022-08-18T08:26:50.807Z,100613.88
2022-08-18T08:30:09.498Z,100599.41
2022-08-18T08:33:28.158Z,100600.59
2022-08-18T08:36:24.913Z,100599.94
2022-08-18T08:39:31.951Z,100613.41
2022-08-18T08:42:31.430Z,100612.97
2022-08-18T08:45:28.461Z,100610.16
2022-08-18T08:48:23.483Z,100613.81
2022-08-18T08:51:11.486Z,100626.88
2022-08-18T08:54:09.250Z,100621.41
2022-08-18T08:56:59.765Z,100622.94
2022-08-18T08:59:48.621Z,100630.47
2022-08-18T09:03:13.292Z,100623.88
2022-08-18T09:06:35.768Z,100618.88
2022-08-18T09:09:29.633Z,100618.19
2022-08-18T09:12:44.911Z,100612.44
2022-08-18T09:15:35.865Z,100614.13
2022-08-18T09:18:59.394Z,100616.56
2022-08-18T09:21:56.935Z,100626.13
2022-08-18T09:24:48.174Z,100630.00
2022-08-18T09:27:53.932Z,100622.78
2022-08-18T09:30:47.600Z,100618.66
2022-08-18T09:33:38.864Z,100618.94
2022-08-18T09:36:42.201Z,100620.53
2022-08-18T09:39:38.798Z,100622.78
2022-08-18T09:43:15.971Z,100613.94
2022-08-18T09:46:07.980Z,100626.78
2022-08-18T09:49:23.213Z,100638.06
2022-08-18T09:52:21.042Z,100626.03
2022-08-18T09:55:18.476Z,100631.22
2022-08-18T09:58:22.946Z,100629.91
2022-08-18T10:01:32.416Z,100614.84
2022-08-18T10:04:29.324Z,100628.38
2022-08-18T10:07:17.782Z,100632.56
2022-08-18T10:11:02.211Z,100645.50
2022-08-18T10:13:38.770Z,100625.81
2022-08-18T10:16:51.129Z,100611.13
2022-08-18T10:19:59.605Z,100635.22
2022-08-18T10:22:49.419Z,100637.69
2022-08-18T10:25:40.938Z,100640.16
2022-08-18T10:28:56.040Z,100633.44
2022-08-18T10:31:58.614Z,100637.47
2022-08-18T10:34:52.890Z,100628.50
2022-08-18T10:37:49.136Z,100631.84
2022-08-18T10:40:37.695Z,100636.78
2022-08-18T10:43:46.171Z,100638.41
2022-08-18T10:46:46.873Z,100628.28
2022-08-18T10:49:32.848Z,100630.09
2022-08-18T10:52:51.350Z,100643.97
2022-08-18T10:55:48.361Z,100645.34
2022-08-18T10:58:53.955Z,100631.91
2022-08-18T11:01:48.003Z,100617.34
2022-08-18T11:04:58.612Z,100634.66
2022-08-18T11:11:27.179Z,100616.47
2022-08-18T11:14:18.536Z,100599.09
2022-08-18T11:17:22.019Z,100608.91
2022-08-18T11:20:13.542Z,100607.13
2022-08-18T11:23:01.969Z,100598.59
2022-08-18T11:25:48.450Z,100600.50
2022-08-18T11:28:37.383Z,100595.84
2022-08-18T11:31:26.659Z,100591.28
2022-08-18T11:34:19.927Z,100604.22
2022-08-18T11:37:09.782Z,100597.44
2022-08-18T11:39:58.336Z,100599.28
2022-08-18T11:42:55.035Z,100599.16
2022-08-18T11:45:46.497Z,100570.19
2022-08-18T11:48:52.305Z,100580.59
2022-08-18T11:51:55.423Z,100560.13
2022-08-18T11:57:51.508Z,100544.63
2022-08-18T12:00:54.838Z,100552.34
2022-08-18T12:03:46.757Z,100538.81
2022-08-18T12:06:32.667Z,100544.09
2022-08-18T12:10:17.300Z,100542.38
2022-08-18T12:12:47.355Z,100511.81
2022-08-18T12:15:44.897Z,100495.25
2022-08-18T12:18:32.707Z,100504.84
2022-08-18T12:21:17.616Z,100498.28
2022-08-18T12:24:03.331Z,100482.69
2022-08-18T12:26:49.721Z,100474.38
2022-08-18T12:29:43.722Z,100486.34
2022-08-18T12:32:49.152Z,100494.28
2022-08-18T12:35:36.196Z,100491.91
2022-08-18T12:38:22.534Z,100499.59
2022-08-18T12:41:07.409Z,100497.09
2022-08-18T12:43:58.998Z,100451.38
2022-08-18T12:46:44.818Z,100468.56
2022-08-18T12:49:30.147Z,100435.25
2022-08-18T12:52:17.281Z,100402.91
2022-08-18T12:55:03.237Z,100427.72
2022-08-18T12:57:53.511Z,100440.81
2022-08-18T13:00:39.287Z,100467.34
2022-08-18T13:03:24.546Z,100475.81
2022-08-18T13:06:13.726Z,100484.13
2022-08-18T13:09:01.981Z,100502.53
2022-08-18T13:11:52.006Z,100552.47
2022-08-18T13:14:38.543Z,100519.66
2022-08-18T13:17:32.113Z,100562.41
2022-08-18T13:20:19.159Z,100508.81
2022-08-18T13:23:06.216Z,100533.75
2022-08-18T13:25:59.435Z,100515.63
2022-08-18T13:28:51.558Z,100540.69
2022-08-18T13:31:56.012Z,100520.72
2022-08-18T13:34:42.965Z,100567.03
2022-08-18T13:37:28.827Z,100508.94
2022-08-18T13:40:14.230Z,100504.22
2022-08-18T13:43:04.556Z,100514.56
2022-08-18T13:45:56.312Z,100495.63
2022-08-18T13:48:42.088Z,100524.47
2022-08-18T13:51:29.438Z,100537.34
2022-08-18T13:54:31.160Z,100504.59
2022-08-18T13:57:16.687Z,100501.47
2022-08-18T14:00:02.444Z,100487.59
2022-08-18T14:02:50.945Z,100520.91
2022-08-18T14:05:51.747Z,100536.50
2022-08-18T14:08:37.382Z,100499.09
2022-08-18T14:11:32.892Z,100512.50
2022-08-18T14:14:18.938Z,100514.56
2022-08-18T14:17:04.181Z,100493.63
2022-08-18T14:19:53.158Z,100485.22
2022-08-18T14:22:41.568Z,100469.50
2022-08-18T14:25:28.062Z,100449.34
2022-08-18T14:28:13.883Z,100452.91
2022-08-18T14:31:03.890Z,100455.19
2022-08-18T14:33:54.158Z,100437.47
2022-08-18T14:36:40.679Z,100419.91
2022-08-18T14:39:29.187Z,100405.72
2022-08-18T14:42:16.466Z,100410.16
2022-08-18T14:45:17.033Z,100427.06
2022-08-18T14:48:11.193Z,100405.34
2022-08-18T14:50:57.813Z,100415.03
2022-08-18T14:53:42.994Z,100431.78
2022-08-18T14:56:29.555Z,100438.03
2022-08-18T14:59:14.860Z,100433.22
2022-08-18T15:02:06.166Z,100429.53
2022-08-18T15:04:57.828Z,100450.66
2022-08-18T15:07:43.279Z,100413.59
2022-08-18T15:10:31.246Z,100428.13
2022-08-18T15:13:16.809Z,100429.25
2022-08-18T15:16:03.112Z,100429.41
2022-08-18T15:18:48.119Z,100429.59
2022-08-18T15:21:38.486Z,100445.97
2022-08-18T15:24:23.949Z,100452.66
2022-08-18T15:27:10.502Z,100433.34
2022-08-18T15:30:09.350Z,100444.44
2022-08-18T15:32:56.494Z,100475.50
2022-08-18T15:35:44.430Z,100452.06
2022-08-18T15:38:30.956Z,100429.44
2022-08-18T15:41:31.221Z,100414.94
2022-08-18T15:44:19.655Z,100416.50
2022-08-18T15:47:05.902Z,100449.25
2022-08-18T15:49:54.809Z,100416.91
2022-08-18T15:52:49.311Z,100411.81
2022-08-18T15:55:37.700Z,100431.91
2022-08-18T15:58:26.933Z,100417.91
2022-08-18T16:01:29.989Z,100425.16
2022-08-18T16:04:16.128Z,100404.81
2022-08-18T16:07:02.139Z,100415.19
2022-08-18T16:09:47.305Z,100427.94
2022-08-18T16:12:33.026Z,100416.88
2022-08-18T16:15:22.418Z,100445.25
2022-08-18T16:18:08.775Z,100471.72
2022-08-18T16:20:56.685Z,100452.38
2022-08-18T16:23:45.458Z,100417.13
2022-08-18T16:26:30.435Z,100455.47
2022-08-18T16:29:15.432Z,100407.59
2022-08-18T16:32:00.371Z,100427.56
2022-08-18T16:34:48.602Z,100430.78
2022-08-18T16:37:33.625Z,100431.25
2022-08-18T16:40:19.905Z,100430.94
2022-08-18T16:43:05.329Z,100430.09
2022-08-18T16:45:50.590Z,100434.53
2022-08-18T16:48:35.978Z,100435.72
2022-08-18T16:51:23.583Z,100443.53
2022-08-18T16:54:08.837Z,100441.81
2022-08-18T16:56:53.707Z,100445.69
2022-08-18T16:59:38.916Z,100445.84
2022-08-18T17:02:24.236Z,100450.03
2022-08-18T17:05:10.041Z,100432.09
2022-08-18T17:07:55.057Z,100440.41
2022-08-18T17:10:41.524Z,100438.97
2022-08-18T17:13:26.802Z,100466.59
2022-08-18T17:16:12.968Z,100440.84
2022-08-18T17:18:58.185Z,100458.47
2022-08-18T17:21:43.406Z,100449.06
2022-08-18T17:24:31.484Z,100449.06
2022-08-18T17:27:27.807Z,100445.69
2022-08-18T17:30:22.842Z,100450.03
2022-08-18T17:33:18.471Z,100456.63
2022-08-18T17:36:06.627Z,100447.50
2022-08-18T17:38:59.296Z,100450.53
2022-08-18T17:41:44.007Z,100449.53
2022-08-18T17:44:31.463Z,100464.91
2022-08-18T17:47:21.712Z,100482.59
2022-08-18T17:50:27.802Z,100468.50
2022-08-18T17:53:13.948Z,100454.34
2022-08-18T17:56:09.586Z,100483.69
2022-08-18T17:59:46.103Z,100470.09
2022-08-18T18:02:30.670Z,100461.34
2022-08-18T18:05:19.513Z,100455.53
2022-08-18T18:08:05.761Z,100461.69
2022-08-18T18:11:06.332Z,100468.44
2022-08-18T18:13:51.521Z,100469.09
2022-08-18T18:16:36.900Z,100483.81
2022-08-18T18:19:24.426Z,100476.94
2022-08-18T18:22:21.527Z,100460.50
2022-08-18T18:25:08.919Z,100474.06
2022-08-18T18:27:54.526Z,100481.84
2022-08-18T18:30:41.293Z,100471.72
2022-08-18T18:33:30.159Z,100487.84
2022-08-18T18:36:36.680Z,100476.22
2022-08-18T18:39:34.006Z,100488.34
2022-08-18T18:42:25.966Z,100482.81
2022-08-18T18:45:25.185Z,100495.78
2022-08-18T18:48:48.300Z,100489.94
2022-08-18T18:51:38.287Z,100496.28
2022-08-18T18:54:35.281Z,100493.09
2022-08-18T18:57:36.248Z,100496.94
2022-08-18T19:00:28.926Z,100500.63
2022-08-18T19:03:24.430Z,100512.28
2022-08-18T19:06:35.762Z,100509.16
2022-08-18T19:09:27.419Z,100510.41
2022-08-18T19:12:24.396Z,100512.56
2022-08-18T19:15:13.721Z,100512.84
2022-08-18T19:18:15.292Z,100512.88
2022-08-18T19:22:05.974Z,100512.66
2022-08-18T19:24:44.912Z,100530.00
2022-08-18T19:27:38.010Z,100521.53
2022-08-18T19:30:23.566Z,100519.81
2022-08-18T19:33:24.728Z,100518.22
2022-08-18T19:36:37.717Z,100519.38
2022-08-18T19:39:48.856Z,100516.75
2022-08-18T19:42:43.917Z,100516.03
2022-08-18T19:45:51.440Z,100506.53
2022-08-18T19:48:48.419Z,100520.66
2022-08-18T19:51:39.737Z,100523.44
2022-08-18T19:54:33.195Z,100512.25
2022-08-18T19:57:18.639Z,100506.47
2022-08-18T20:00:21.264Z,100517.19
2022-08-18T20:03:19.526Z,100499.00
2022-08-18T20:06:35.097Z,100500.88
2022-08-18T20:09:37.544Z,100505.34
2022-08-18T20:12:25.306Z,100509.88
2022-08-18T20:15:13.728Z,100509.94
2022-08-18T20:18:20.417Z,100495.34
2022-08-18T20:21:31.264Z,100519.25
2022-08-18T20:24:36.349Z,100517.50
2022-08-18T20:27:35.065Z,100514.75
2022-08-18T20:30:23.971Z,100533.09
2022-08-18T20:33:25.794Z,100526.13
2022-08-18T20:36:28.404Z,100528.91
2022-08-18T20:39:40.834Z,100506.59
2022-08-18T20:42:35.254Z,100514.94
2022-08-18T20:45:28.701Z,100501.97
2022-08-18T20:48:43.298Z,100502.91
2022-08-18T20:51:31.379Z,100498.19
2022-08-18T20:54:21.377Z,100489.41
2022-08-18T20:57:11.711Z,100498.19
2022-08-18T21:00:08.857Z,100511.44
2022-08-18T21:02:59.267Z,100521.84
2022-08-18T21:05:45.640Z,100520.09
2022-08-18T21:08:34.598Z,100527.09
2022-08-18T21:11:30.881Z,100535.78
2022-08-18T21:14:27.132Z,100543.59
2022-08-18T21:17:15.267Z,100531.19
2022-08-18T21:20:06.672Z,100538.31
2022-08-18T21:23:11.616Z,100539.16
2022-08-18T21:26:15.244Z,100540.94
2022-08-18T21:29:08.552Z,100533.31
2022-08-18T21:32:10.028Z,100531.63
2022-08-18T21:34:55.202Z,100534.34
2022-08-18T21:37:41.429Z,100535.22
2022-08-18T21:40:47.915Z,100532.63
2022-08-18T21:43:40.703Z,100540.59
2022-08-18T21:46:30.498Z,100527.63
2022-08-18T21:49:25.304Z,100545.94
2022-08-18T21:52:10.708Z,100529.41
2022-08-18T21:55:06.382Z,100540.69
2022-08-18T21:58:17.864Z,100546.09
2022-08-18T22:01:36.933Z,100539.09
2022-08-18T22:04:47.636Z,100557.56
2022-08-18T22:07:35.054Z,100554.03
2022-08-18T22:10:30.483Z,100563.59
2022-08-18T22:13:25.630Z,100567.06
2022-08-18T22:16:32.434Z,100542.66
2022-08-18T22:19:20.173Z,100539.56
2022-08-18T22:22:06.042Z,100533.50
2022-08-18T22:24:58.195Z,100543.94
2022-08-18T22:27:49.342Z,100543.81
2022-08-18T22:30:34.746Z,100546.56
2022-08-18T22:33:20.031Z,100557.97
2022-08-18T22:36:05.068Z,100552.75
2022-08-18T22:38:50.702Z,100560.69
2022-08-18T22:41:36.921Z,100560.78
2022-08-18T22:44:22.314Z,100552.91
2022-08-18T22:47:08.731Z,100563.75
2022-08-18T22:49:53.954Z,100555.50
2022-08-18T22:52:43.919Z,100554.81
2022-08-18T22:55:29.048Z,100550.31
2022-08-18T22:58:17.575Z,100561.59
2022-08-18T23:01:08.060Z,100563.31
2022-08-18T23:03:53.159Z,100566.06
2022-08-18T23:06:38.104Z,100569.78
2022-08-18T23:09:26.706Z,100563.75
2022-08-18T23:12:12.811Z,100554.16
2022-08-18T23:14:58.173Z,100558.63
2022-08-18T23:17:43.598Z,100575.28
2022-08-18T23:20:28.446Z,100569.19
2022-08-18T23:23:15.617Z,100565.78
2022-08-18T23:26:00.692Z,100577.16
2022-08-18T23:28:46.080Z,100584.19
2022-08-18T23:31:32.606Z,100584.19
2022-08-18T23:34:19.742Z,100586.91
2022-08-18T23:37:05.354Z,100587.84
2022-08-18T23:39:50.743Z,100577.72
2022-08-18T23:42:36.025Z,100584.72
2022-08-18T23:45:21.047Z,100589.06
2022-08-18T23:48:06.936Z,100593.38
2022-08-18T23:50:51.937Z,100601.38
2022-08-18T23:53:36.817Z,100609.31
2022-08-18T23:56:21.723Z,100619.88
2022-08-18T23:59:07.862Z,100614.63
